首页
METAR-TAF:

METAR-TAF

机场 :

約翰·甘迺迪國際機場

纽约 / JFK, 紐約州, 美国

纬度: 40-38-19N, 经度: 073-45-44W, 海拔: 3米

当前天气观测

该预报发布于16分钟前的11:51 UTC
风速26节,风向西,有时为33节阵风
温度 6°C
湿度 87%
气压 995 hPa
能見度: 16.1公里
多云层高于1700英尺
多云层高于4400英尺
多云层高于7000英尺

METAR: KJFK 271151Z 26026G33KT 10SM BKN017 BKN044 BKN070 06/04 A2938 RMK AO2 PK WND 25033/1151 RAE1053 SLP949 P0000 60081 70101 T00610039 10089 20061 53020

时间: 07:07 (12:07 UTC)

预报

该预报发布于34分钟前的11:33 UTC
预报有效从27日的 12点(UTC)到 28日的 18点(UTC)
风速23节,风向西,有时为34节阵风
能見度: 10公里
少量云层高于3000英尺
多云层高于5000英尺
短暂存在
从 27日的 12点(UTC)到 27日的 13点(UTC)
多云层高于2000英尺
从 27日的 1600点(UTC)
风速25节,风向西,有时为37节阵风
能見度: 10公里
散云层高于5000英尺
从 28日的 0300点(UTC)
风速22节,风向西,有时为30节阵风
能見度: 10公里
散云层高于5000英尺

TAF: KJFK 271133Z 2712/2818 27023G34KT P6SM FEW030 BKN050 TEMPO 2712/2713 BKN020 FM271600 27025G37KT P6SM SCT050 FM280300 26022G30KT P6SM SCT050

超过4000个机场的气象观测和天气预报(METAR&TAF报告)。

可查询的气象台以黄色和红色小点在地图上表示。

将鼠标移到小点上方,可查看气象台名称。

然后点击查看天气观测和预报。

如需切换地图:点击带黑十字的绿色按钮放大地图;点击带横线的绿色按钮缩小地图;或者点击绿色箭头查看邻近地区的地图。


METAR-TAF: